sensor_id;sensor_type;location;lat;lon;timestamp;P1;durP1;ratioP1;P2;durP2;ratioP2
25615;SDS011;13482;48.234;13.006;2023-05-16T00:01:12;1.42;;;1.00;;
25615;SDS011;13482;48.234;13.006;2023-05-16T00:03:39;1.30;;;1.10;;
25615;SDS011;13482;48.234;13.006;2023-05-16T00:06:08;1.73;;;1.00;;
25615;SDS011;13482;48.234;13.006;2023-05-16T00:08:35;1.40;;;1.00;;
25615;SDS011;13482;48.234;13.006;2023-05-16T00:11:02;1.70;;;1.17;;
25615;SDS011;13482;48.234;13.006;2023-05-16T00:13:29;1.58;;;1.10;;
25615;SDS011;13482;48.234;13.006;2023-05-16T00:15:57;1.40;;;0.98;;
25615;SDS011;13482;48.234;13.006;2023-05-16T00:18:27;1.38;;;0.95;;
25615;SDS011;13482;48.234;13.006;2023-05-16T00:20:55;2.08;;;1.00;;
25615;SDS011;13482;48.234;13.006;2023-05-16T00:23:22;1.75;;;1.10;;
25615;SDS011;13482;48.234;13.006;2023-05-16T00:25:50;1.83;;;1.27;;
25615;SDS011;13482;48.234;13.006;2023-05-16T00:28:17;1.63;;;1.20;;
25615;SDS011;13482;48.234;13.006;2023-05-16T00:30:44;1.45;;;1.00;;
25615;SDS011;13482;48.234;13.006;2023-05-16T00:33:11;1.67;;;1.10;;
25615;SDS011;13482;48.234;13.006;2023-05-16T00:35:38;2.58;;;1.00;;
25615;SDS011;13482;48.234;13.006;2023-05-16T00:38:06;2.60;;;0.90;;
25615;SDS011;13482;48.234;13.006;2023-05-16T00:40:33;1.48;;;1.00;;
25615;SDS011;13482;48.234;13.006;2023-05-16T00:43:00;1.38;;;0.98;;
25615;SDS011;13482;48.234;13.006;2023-05-16T00:45:27;2.63;;;1.00;;
25615;SDS011;13482;48.234;13.006;2023-05-16T00:47:54;2.17;;;1.20;;
25615;SDS011;13482;48.234;13.006;2023-05-16T00:50:22;2.50;;;0.88;;
25615;SDS011;13482;48.234;13.006;2023-05-16T00:52:49;1.38;;;1.00;;
25615;SDS011;13482;48.234;13.006;2023-05-16T00:55:16;0.90;;;0.70;;
25615;SDS011;13482;48.234;13.006;2023-05-16T00:57:44;1.88;;;0.85;;
25615;SDS011;13482;48.234;13.006;2023-05-16T01:00:11;2.20;;;1.10;;
25615;SDS011;13482;48.234;13.006;2023-05-16T01:02:40;1.95;;;0.90;;
25615;SDS011;13482;48.234;13.006;2023-05-16T01:05:08;1.38;;;0.95;;
25615;SDS011;13482;48.234;13.006;2023-05-16T01:07:36;1.50;;;0.98;;
25615;SDS011;13482;48.234;13.006;2023-05-16T01:10:04;1.38;;;0.90;;
25615;SDS011;13482;48.234;13.006;2023-05-16T01:20:58;1.10;;;0.82;;
25615;SDS011;13482;48.234;13.006;2023-05-16T01:26:30;0.85;;;0.65;;
25615;SDS011;13482;48.234;13.006;2023-05-16T01:28:58;0.77;;;0.70;;
25615;SDS011;13482;48.234;13.006;2023-05-16T01:31:27;1.70;;;1.10;;
25615;SDS011;13482;48.234;13.006;2023-05-16T01:33:55;2.03;;;0.93;;
25615;SDS011;13482;48.234;13.006;2023-05-16T01:36:29;1.40;;;0.88;;
25615;SDS011;13482;48.234;13.006;2023-05-16T01:39:43;1.58;;;0.98;;
25615;SDS011;13482;48.234;13.006;2023-05-16T01:42:20;1.95;;;1.15;;
25615;SDS011;13482;48.234;13.006;2023-05-16T01:44:55;1.10;;;0.80;;
25615;SDS011;13482;48.234;13.006;2023-05-16T01:47:29;1.38;;;1.08;;
25615;SDS011;13482;48.234;13.006;2023-05-16T01:50:14;1.42;;;1.00;;
25615;SDS011;13482;48.234;13.006;2023-05-16T01:55:20;1.33;;;0.88;;
25615;SDS011;13482;48.234;13.006;2023-05-16T01:58:03;1.20;;;0.85;;
25615;SDS011;13482;48.234;13.006;2023-05-16T02:00:33;1.30;;;0.90;;
25615;SDS011;13482;48.234;13.006;2023-05-16T02:03:00;1.13;;;0.80;;
25615;SDS011;13482;48.234;13.006;2023-05-16T02:05:28;1.40;;;0.90;;
25615;SDS011;13482;48.234;13.006;2023-05-16T02:07:56;1.60;;;0.80;;
25615;SDS011;13482;48.234;13.006;2023-05-16T02:10:24;1.80;;;0.90;;
25615;SDS011;13482;48.234;13.006;2023-05-16T02:12:52;1.42;;;0.90;;
25615;SDS011;13482;48.234;13.006;2023-05-16T02:15:19;1.20;;;0.80;;
25615;SDS011;13482;48.234;13.006;2023-05-16T02:17:47;2.78;;;1.05;;
25615;SDS011;13482;48.234;13.006;2023-05-16T02:20:14;2.63;;;1.08;;
25615;SDS011;13482;48.234;13.006;2023-05-16T02:22:41;1.63;;;0.93;;
25615;SDS011;13482;48.234;13.006;2023-05-16T02:25:09;1.13;;;0.80;;
25615;SDS011;13482;48.234;13.006;2023-05-16T02:27:37;1.50;;;1.00;;
25615;SDS011;13482;48.234;13.006;2023-05-16T02:30:04;1.50;;;1.20;;
25615;SDS011;13482;48.234;13.006;2023-05-16T02:32:32;1.67;;;0.93;;
25615;SDS011;13482;48.234;13.006;2023-05-16T02:34:59;1.40;;;0.90;;
25615;SDS011;13482;48.234;13.006;2023-05-16T02:37:27;1.17;;;0.88;;
25615;SDS011;13482;48.234;13.006;2023-05-16T02:39:54;1.63;;;1.13;;
25615;SDS011;13482;48.234;13.006;2023-05-16T02:42:21;1.50;;;1.20;;
25615;SDS011;13482;48.234;13.006;2023-05-16T02:44:48;1.10;;;0.82;;
25615;SDS011;13482;48.234;13.006;2023-05-16T02:47:15;2.10;;;1.23;;
25615;SDS011;13482;48.234;13.006;2023-05-16T02:49:42;1.27;;;0.80;;
25615;SDS011;13482;48.234;13.006;2023-05-16T02:52:09;1.15;;;1.00;;
25615;SDS011;13482;48.234;13.006;2023-05-16T02:54:37;3.47;;;1.30;;
25615;SDS011;13482;48.234;13.006;2023-05-16T02:57:04;1.80;;;1.10;;
25615;SDS011;13482;48.234;13.006;2023-05-16T02:59:31;2.28;;;1.02;;
25615;SDS011;13482;48.234;13.006;2023-05-16T03:01:59;1.60;;;1.10;;
25615;SDS011;13482;48.234;13.006;2023-05-16T03:04:26;1.90;;;1.00;;
25615;SDS011;13482;48.234;13.006;2023-05-16T03:06:54;2.20;;;1.17;;
25615;SDS011;13482;48.234;13.006;2023-05-16T03:09:21;1.48;;;1.08;;
25615;SDS011;13482;48.234;13.006;2023-05-16T03:11:48;1.55;;;1.10;;
25615;SDS011;13482;48.234;13.006;2023-05-16T03:14:15;1.80;;;1.20;;
25615;SDS011;13482;48.234;13.006;2023-05-16T03:16:43;1.70;;;1.17;;
25615;SDS011;13482;48.234;13.006;2023-05-16T03:19:10;1.15;;;0.90;;
25615;SDS011;13482;48.234;13.006;2023-05-16T03:21:37;1.52;;;0.98;;
25615;SDS011;13482;48.234;13.006;2023-05-16T03:24:04;1.50;;;1.10;;
25615;SDS011;13482;48.234;13.006;2023-05-16T03:26:33;1.60;;;1.00;;
25615;SDS011;13482;48.234;13.006;2023-05-16T03:29:00;4.85;;;1.23;;
25615;SDS011;13482;48.234;13.006;2023-05-16T03:31:27;3.42;;;1.33;;
25615;SDS011;13482;48.234;13.006;2023-05-16T03:33:59;1.30;;;0.98;;
25615;SDS011;13482;48.234;13.006;2023-05-16T03:36:26;3.42;;;1.10;;
25615;SDS011;13482;48.234;13.006;2023-05-16T03:38:53;1.27;;;0.70;;
25615;SDS011;13482;48.234;13.006;2023-05-16T03:41:21;1.40;;;0.80;;
25615;SDS011;13482;48.234;13.006;2023-05-16T03:43:49;1.30;;;0.90;;
25615;SDS011;13482;48.234;13.006;2023-05-16T03:46:16;1.42;;;0.80;;
25615;SDS011;13482;48.234;13.006;2023-05-16T03:48:44;1.05;;;0.75;;
25615;SDS011;13482;48.234;13.006;2023-05-16T03:51:11;1.75;;;1.10;;
25615;SDS011;13482;48.234;13.006;2023-05-16T03:53:38;2.67;;;1.40;;
25615;SDS011;13482;48.234;13.006;2023-05-16T03:56:07;1.67;;;1.17;;
25615;SDS011;13482;48.234;13.006;2023-05-16T03:58:34;1.67;;;1.15;;
25615;SDS011;13482;48.234;13.006;2023-05-16T04:01:01;1.50;;;1.10;;
25615;SDS011;13482;48.234;13.006;2023-05-16T04:03:29;5.18;;;1.17;;
25615;SDS011;13482;48.234;13.006;2023-05-16T04:05:56;1.50;;;1.00;;
25615;SDS011;13482;48.234;13.006;2023-05-16T04:08:24;1.80;;;1.30;;
25615;SDS011;13482;48.234;13.006;2023-05-16T04:10:51;3.60;;;1.48;;
25615;SDS011;13482;48.234;13.006;2023-05-16T04:13:18;1.70;;;1.35;;
25615;SDS011;13482;48.234;13.006;2023-05-16T04:15:45;1.98;;;1.48;;
25615;SDS011;13482;48.234;13.006;2023-05-16T04:18:12;1.88;;;1.40;;
25615;SDS011;13482;48.234;13.006;2023-05-16T04:20:42;2.22;;;1.45;;
25615;SDS011;13482;48.234;13.006;2023-05-16T04:23:12;2.08;;;1.30;;
25615;SDS011;13482;48.234;13.006;2023-05-16T04:25:39;2.15;;;1.23;;
25615;SDS011;13482;48.234;13.006;2023-05-16T04:28:08;2.17;;;1.55;;
25615;SDS011;13482;48.234;13.006;2023-05-16T04:30:35;1.98;;;1.33;;
25615;SDS011;13482;48.234;13.006;2023-05-16T04:33:03;1.60;;;1.20;;
25615;SDS011;13482;48.234;13.006;2023-05-16T04:35:31;1.35;;;1.00;;
25615;SDS011;13482;48.234;13.006;2023-05-16T04:37:58;1.85;;;1.25;;
25615;SDS011;13482;48.234;13.006;2023-05-16T04:40:26;1.80;;;1.50;;
25615;SDS011;13482;48.234;13.006;2023-05-16T04:42:53;2.03;;;1.73;;
25615;SDS011;13482;48.234;13.006;2023-05-16T04:45:20;2.28;;;1.83;;
25615;SDS011;13482;48.234;13.006;2023-05-16T04:47:48;2.85;;;1.75;;
25615;SDS011;13482;48.234;13.006;2023-05-16T04:50:16;2.95;;;2.20;;
25615;SDS011;13482;48.234;13.006;2023-05-16T04:52:43;3.10;;;1.95;;
25615;SDS011;13482;48.234;13.006;2023-05-16T04:55:10;2.00;;;1.52;;
25615;SDS011;13482;48.234;13.006;2023-05-16T04:57:38;1.80;;;1.48;;
25615;SDS011;13482;48.234;13.006;2023-05-16T05:00:05;3.63;;;1.67;;
25615;SDS011;13482;48.234;13.006;2023-05-16T05:02:35;1.77;;;1.30;;
25615;SDS011;13482;48.234;13.006;2023-05-16T05:05:04;2.42;;;1.58;;
25615;SDS011;13482;48.234;13.006;2023-05-16T05:07:33;3.50;;;1.60;;
25615;SDS011;13482;48.234;13.006;2023-05-16T05:10:00;3.70;;;1.65;;
25615;SDS011;13482;48.234;13.006;2023-05-16T05:12:27;3.00;;;1.77;;
25615;SDS011;13482;48.234;13.006;2023-05-16T05:14:54;2.03;;;1.58;;
25615;SDS011;13482;48.234;13.006;2023-05-16T05:17:22;1.90;;;1.50;;
25615;SDS011;13482;48.234;13.006;2023-05-16T05:19:49;2.20;;;1.45;;
25615;SDS011;13482;48.234;13.006;2023-05-16T05:22:16;2.05;;;1.52;;
25615;SDS011;13482;48.234;13.006;2023-05-16T05:24:43;3.65;;;1.30;;
25615;SDS011;13482;48.234;13.006;2023-05-16T05:27:11;2.88;;;1.40;;
25615;SDS011;13482;48.234;13.006;2023-05-16T05:29:39;2.00;;;1.60;;
25615;SDS011;13482;48.234;13.006;2023-05-16T05:32:06;1.95;;;1.52;;
25615;SDS011;13482;48.234;13.006;2023-05-16T05:34:34;2.92;;;2.10;;
25615;SDS011;13482;48.234;13.006;2023-05-16T05:37:01;2.20;;;1.35;;
25615;SDS011;13482;48.234;13.006;2023-05-16T05:39:28;3.22;;;1.52;;
25615;SDS011;13482;48.234;13.006;2023-05-16T05:41:55;2.72;;;1.70;;
25615;SDS011;13482;48.234;13.006;2023-05-16T05:44:22;2.17;;;1.52;;
25615;SDS011;13482;48.234;13.006;2023-05-16T05:46:50;2.35;;;1.67;;
25615;SDS011;13482;48.234;13.006;2023-05-16T05:49:17;1.98;;;1.50;;
25615;SDS011;13482;48.234;13.006;2023-05-16T05:51:44;1.80;;;1.55;;
25615;SDS011;13482;48.234;13.006;2023-05-16T05:54:11;1.77;;;1.45;;
25615;SDS011;13482;48.234;13.006;2023-05-16T05:56:38;1.77;;;1.42;;
25615;SDS011;13482;48.234;13.006;2023-05-16T05:59:06;2.05;;;1.50;;
25615;SDS011;13482;48.234;13.006;2023-05-16T06:01:33;2.55;;;1.65;;
25615;SDS011;13482;48.234;13.006;2023-05-16T06:04:00;2.15;;;1.60;;
25615;SDS011;13482;48.234;13.006;2023-05-16T06:06:27;1.75;;;1.50;;
25615;SDS011;13482;48.234;13.006;2023-05-16T06:08:55;2.67;;;1.70;;
25615;SDS011;13482;48.234;13.006;2023-05-16T06:11:22;2.97;;;1.60;;
25615;SDS011;13482;48.234;13.006;2023-05-16T06:13:50;2.85;;;1.70;;
25615;SDS011;13482;48.234;13.006;2023-05-16T06:16:18;2.28;;;1.67;;
25615;SDS011;13482;48.234;13.006;2023-05-16T06:18:49;7.20;;;2.03;;
25615;SDS011;13482;48.234;13.006;2023-05-16T06:21:16;2.10;;;1.70;;
25615;SDS011;13482;48.234;13.006;2023-05-16T06:23:43;3.05;;;1.70;;
25615;SDS011;13482;48.234;13.006;2023-05-16T06:26:10;2.53;;;1.77;;
25615;SDS011;13482;48.234;13.006;2023-05-16T06:28:37;2.40;;;1.88;;
25615;SDS011;13482;48.234;13.006;2023-05-16T06:31:05;3.03;;;1.80;;
25615;SDS011;13482;48.234;13.006;2023-05-16T06:33:32;3.80;;;1.90;;
25615;SDS011;13482;48.234;13.006;2023-05-16T06:35:59;2.47;;;1.80;;
25615;SDS011;13482;48.234;13.006;2023-05-16T06:38:26;2.38;;;1.52;;
25615;SDS011;13482;48.234;13.006;2023-05-16T06:40:53;3.05;;;1.52;;
25615;SDS011;13482;48.234;13.006;2023-05-16T06:43:20;2.05;;;1.50;;
25615;SDS011;13482;48.234;13.006;2023-05-16T06:45:48;2.63;;;1.63;;
25615;SDS011;13482;48.234;13.006;2023-05-16T06:48:16;2.38;;;1.75;;
25615;SDS011;13482;48.234;13.006;2023-05-16T06:50:48;2.63;;;1.60;;
25615;SDS011;13482;48.234;13.006;2023-05-16T06:53:17;2.10;;;1.77;;
25615;SDS011;13482;48.234;13.006;2023-05-16T06:55:45;2.03;;;1.60;;
25615;SDS011;13482;48.234;13.006;2023-05-16T06:58:13;2.78;;;2.03;;
25615;SDS011;13482;48.234;13.006;2023-05-16T07:00:40;2.80;;;2.00;;
25615;SDS011;13482;48.234;13.006;2023-05-16T07:03:09;2.60;;;2.10;;
25615;SDS011;13482;48.234;13.006;2023-05-16T07:05:36;3.47;;;2.17;;
25615;SDS011;13482;48.234;13.006;2023-05-16T07:08:04;2.30;;;1.98;;
25615;SDS011;13482;48.234;13.006;2023-05-16T07:10:33;2.20;;;1.70;;
25615;SDS011;13482;48.234;13.006;2023-05-16T07:13:00;4.07;;;2.17;;
25615;SDS011;13482;48.234;13.006;2023-05-16T07:15:28;3.25;;;2.33;;
25615;SDS011;13482;48.234;13.006;2023-05-16T07:17:56;2.60;;;2.08;;
25615;SDS011;13482;48.234;13.006;2023-05-16T07:20:23;2.38;;;1.90;;
25615;SDS011;13482;48.234;13.006;2023-05-16T07:22:51;2.80;;;1.70;;
25615;SDS011;13482;48.234;13.006;2023-05-16T07:25:18;2.25;;;1.90;;
25615;SDS011;13482;48.234;13.006;2023-05-16T07:27:45;2.47;;;2.15;;
25615;SDS011;13482;48.234;13.006;2023-05-16T07:30:13;2.67;;;2.28;;
25615;SDS011;13482;48.234;13.006;2023-05-16T07:32:40;2.83;;;2.40;;
25615;SDS011;13482;48.234;13.006;2023-05-16T07:35:08;2.88;;;2.30;;
25615;SDS011;13482;48.234;13.006;2023-05-16T07:37:36;2.65;;;2.20;;
25615;SDS011;13482;48.234;13.006;2023-05-16T07:40:03;2.58;;;1.80;;
25615;SDS011;13482;48.234;13.006;2023-05-16T07:42:32;2.35;;;1.80;;
25615;SDS011;13482;48.234;13.006;2023-05-16T07:44:59;2.95;;;2.17;;
25615;SDS011;13482;48.234;13.006;2023-05-16T07:47:27;3.45;;;2.10;;
25615;SDS011;13482;48.234;13.006;2023-05-16T07:49:55;2.15;;;1.80;;
25615;SDS011;13482;48.234;13.006;2023-05-16T07:52:22;2.85;;;2.53;;
25615;SDS011;13482;48.234;13.006;2023-05-16T07:54:49;2.40;;;2.17;;
25615;SDS011;13482;48.234;13.006;2023-05-16T07:57:17;2.72;;;2.22;;
25615;SDS011;13482;48.234;13.006;2023-05-16T07:59:46;3.35;;;2.85;;
25615;SDS011;13482;48.234;13.006;2023-05-16T08:02:14;3.35;;;2.60;;
25615;SDS011;13482;48.234;13.006;2023-05-16T08:04:42;3.10;;;2.58;;
25615;SDS011;13482;48.234;13.006;2023-05-16T08:07:09;3.35;;;2.42;;
25615;SDS011;13482;48.234;13.006;2023-05-16T08:09:37;3.22;;;2.47;;
25615;SDS011;13482;48.234;13.006;2023-05-16T08:12:04;3.58;;;3.20;;
25615;SDS011;13482;48.234;13.006;2023-05-16T08:14:32;3.22;;;2.92;;
25615;SDS011;13482;48.234;13.006;2023-05-16T08:16:59;3.40;;;3.00;;
25615;SDS011;13482;48.234;13.006;2023-05-16T08:19:28;4.53;;;3.60;;
25615;SDS011;13482;48.234;13.006;2023-05-16T08:21:55;3.30;;;3.00;;
25615;SDS011;13482;48.234;13.006;2023-05-16T08:24:22;3.53;;;2.83;;
25615;SDS011;13482;48.234;13.006;2023-05-16T08:26:50;4.93;;;3.30;;
25615;SDS011;13482;48.234;13.006;2023-05-16T08:29:17;4.07;;;3.13;;
25615;SDS011;13482;48.234;13.006;2023-05-16T08:31:44;3.35;;;3.03;;
25615;SDS011;13482;48.234;13.006;2023-05-16T08:34:11;3.20;;;2.70;;
25615;SDS011;13482;48.234;13.006;2023-05-16T08:36:39;3.35;;;2.83;;
25615;SDS011;13482;48.234;13.006;2023-05-16T08:39:06;3.35;;;3.03;;
25615;SDS011;13482;48.234;13.006;2023-05-16T08:41:36;3.03;;;2.58;;
25615;SDS011;13482;48.234;13.006;2023-05-16T08:44:04;3.17;;;2.88;;
25615;SDS011;13482;48.234;13.006;2023-05-16T08:46:32;4.00;;;2.85;;
25615;SDS011;13482;48.234;13.006;2023-05-16T08:49:02;3.35;;;2.72;;
25615;SDS011;13482;48.234;13.006;2023-05-16T08:51:33;3.13;;;2.08;;
25615;SDS011;13482;48.234;13.006;2023-05-16T08:54:03;3.00;;;2.60;;
25615;SDS011;13482;48.234;13.006;2023-05-16T08:56:37;3.05;;;2.45;;
25615;SDS011;13482;48.234;13.006;2023-05-16T08:59:04;2.75;;;2.40;;
25615;SDS011;13482;48.234;13.006;2023-05-16T09:01:33;3.05;;;2.75;;
25615;SDS011;13482;48.234;13.006;2023-05-16T09:04:01;3.03;;;2.65;;
25615;SDS011;13482;48.234;13.006;2023-05-16T09:06:33;3.00;;;2.63;;
25615;SDS011;13482;48.234;13.006;2023-05-16T09:09:03;3.08;;;2.28;;
25615;SDS011;13482;48.234;13.006;2023-05-16T09:11:33;2.80;;;2.30;;
25615;SDS011;13482;48.234;13.006;2023-05-16T09:14:02;2.92;;;2.25;;
25615;SDS011;13482;48.234;13.006;2023-05-16T09:16:31;2.60;;;2.20;;
25615;SDS011;13482;48.234;13.006;2023-05-16T09:18:58;3.85;;;2.35;;
25615;SDS011;13482;48.234;13.006;2023-05-16T09:21:28;3.28;;;2.50;;
25615;SDS011;13482;48.234;13.006;2023-05-16T09:24:06;3.22;;;2.35;;
25615;SDS011;13482;48.234;13.006;2023-05-16T09:26:37;2.42;;;2.22;;
25615;SDS011;13482;48.234;13.006;2023-05-16T09:29:11;3.13;;;2.50;;
25615;SDS011;13482;48.234;13.006;2023-05-16T09:31:39;2.75;;;2.45;;
25615;SDS011;13482;48.234;13.006;2023-05-16T09:34:07;3.15;;;2.60;;
25615;SDS011;13482;48.234;13.006;2023-05-16T09:36:36;2.97;;;2.53;;
25615;SDS011;13482;48.234;13.006;2023-05-16T09:39:06;2.40;;;2.13;;
25615;SDS011;13482;48.234;13.006;2023-05-16T09:41:33;2.70;;;2.45;;
25615;SDS011;13482;48.234;13.006;2023-05-16T09:44:04;2.85;;;2.40;;
25615;SDS011;13482;48.234;13.006;2023-05-16T09:46:35;3.78;;;2.50;;
25615;SDS011;13482;48.234;13.006;2023-05-16T09:49:03;2.53;;;2.30;;
25615;SDS011;13482;48.234;13.006;2023-05-16T09:51:31;2.38;;;2.08;;
25615;SDS011;13482;48.234;13.006;2023-05-16T09:53:59;3.20;;;2.22;;
25615;SDS011;13482;48.234;13.006;2023-05-16T09:56:27;2.78;;;2.38;;
25615;SDS011;13482;48.234;13.006;2023-05-16T09:58:55;3.15;;;2.72;;
25615;SDS011;13482;48.234;13.006;2023-05-16T10:01:22;2.63;;;2.40;;
25615;SDS011;13482;48.234;13.006;2023-05-16T10:03:50;2.92;;;2.55;;
25615;SDS011;13482;48.234;13.006;2023-05-16T10:06:18;2.42;;;2.22;;
25615;SDS011;13482;48.234;13.006;2023-05-16T10:08:46;2.75;;;2.45;;
25615;SDS011;13482;48.234;13.006;2023-05-16T10:11:14;2.70;;;2.05;;
25615;SDS011;13482;48.234;13.006;2023-05-16T10:13:43;2.33;;;1.88;;
25615;SDS011;13482;48.234;13.006;2023-05-16T10:16:18;2.80;;;2.20;;
25615;SDS011;13482;48.234;13.006;2023-05-16T10:18:51;3.08;;;2.50;;
25615;SDS011;13482;48.234;13.006;2023-05-16T10:21:19;2.88;;;2.55;;
25615;SDS011;13482;48.234;13.006;2023-05-16T10:23:49;3.00;;;2.67;;
25615;SDS011;13482;48.234;13.006;2023-05-16T10:26:18;4.20;;;2.72;;
25615;SDS011;13482;48.234;13.006;2023-05-16T10:28:47;3.33;;;2.50;;
25615;SDS011;13482;48.234;13.006;2023-05-16T10:31:16;2.90;;;2.50;;
25615;SDS011;13482;48.234;13.006;2023-05-16T10:33:44;2.80;;;2.50;;
25615;SDS011;13482;48.234;13.006;2023-05-16T10:36:12;3.17;;;2.67;;
25615;SDS011;13482;48.234;13.006;2023-05-16T10:38:41;4.15;;;2.88;;
25615;SDS011;13482;48.234;13.006;2023-05-16T10:41:10;2.53;;;2.28;;
25615;SDS011;13482;48.234;13.006;2023-05-16T10:43:38;3.15;;;2.72;;
25615;SDS011;13482;48.234;13.006;2023-05-16T10:46:09;3.03;;;2.63;;
25615;SDS011;13482;48.234;13.006;2023-05-16T10:48:38;2.95;;;2.42;;
25615;SDS011;13482;48.234;13.006;2023-05-16T10:53:53;3.08;;;2.60;;
25615;SDS011;13482;48.234;13.006;2023-05-16T10:56:24;3.57;;;2.67;;
25615;SDS011;13482;48.234;13.006;2023-05-16T10:58:54;3.15;;;2.70;;
25615;SDS011;13482;48.234;13.006;2023-05-16T11:01:23;3.55;;;2.65;;
25615;SDS011;13482;48.234;13.006;2023-05-16T11:06:33;3.00;;;2.70;;
25615;SDS011;13482;48.234;13.006;2023-05-16T11:09:17;3.55;;;2.97;;
25615;SDS011;13482;48.234;13.006;2023-05-16T11:14:25;3.03;;;2.70;;
25615;SDS011;13482;48.234;13.006;2023-05-16T11:17:08;3.38;;;2.80;;
25615;SDS011;13482;48.234;13.006;2023-05-16T11:19:44;3.65;;;2.72;;
25615;SDS011;13482;48.234;13.006;2023-05-16T11:22:25;3.28;;;2.67;;
25615;SDS011;13482;48.234;13.006;2023-05-16T11:27:36;3.40;;;2.90;;
25615;SDS011;13482;48.234;13.006;2023-05-16T11:30:13;4.45;;;2.90;;
25615;SDS011;13482;48.234;13.006;2023-05-16T11:32:43;3.92;;;2.80;;
25615;SDS011;13482;48.234;13.006;2023-05-16T11:35:16;2.80;;;2.35;;
25615;SDS011;13482;48.234;13.006;2023-05-16T11:37:44;4.20;;;2.55;;
25615;SDS011;13482;48.234;13.006;2023-05-16T11:40:12;3.60;;;3.10;;
25615;SDS011;13482;48.234;13.006;2023-05-16T11:42:42;3.75;;;2.88;;
25615;SDS011;13482;48.234;13.006;2023-05-16T11:47:48;3.95;;;3.42;;
25615;SDS011;13482;48.234;13.006;2023-05-16T11:50:16;3.03;;;2.72;;
25615;SDS011;13482;48.234;13.006;2023-05-16T11:52:49;3.70;;;2.92;;
25615;SDS011;13482;48.234;13.006;2023-05-16T11:55:20;3.00;;;2.67;;
25615;SDS011;13482;48.234;13.006;2023-05-16T11:58:06;3.15;;;2.75;;
25615;SDS011;13482;48.234;13.006;2023-05-16T12:00:34;2.83;;;2.53;;
25615;SDS011;13482;48.234;13.006;2023-05-16T12:03:02;3.47;;;2.95;;
25615;SDS011;13482;48.234;13.006;2023-05-16T12:05:31;2.80;;;2.50;;
25615;SDS011;13482;48.234;13.006;2023-05-16T12:08:00;3.30;;;2.72;;
25615;SDS011;13482;48.234;13.006;2023-05-16T12:10:30;4.38;;;3.05;;
25615;SDS011;13482;48.234;13.006;2023-05-16T12:13:00;3.78;;;3.30;;
25615;SDS011;13482;48.234;13.006;2023-05-16T12:15:29;3.50;;;3.20;;
25615;SDS011;13482;48.234;13.006;2023-05-16T12:17:56;5.15;;;3.05;;
25615;SDS011;13482;48.234;13.006;2023-05-16T12:20:24;2.90;;;2.60;;
25615;SDS011;13482;48.234;13.006;2023-05-16T12:22:52;4.25;;;3.15;;
25615;SDS011;13482;48.234;13.006;2023-05-16T12:25:27;3.83;;;3.15;;
25615;SDS011;13482;48.234;13.006;2023-05-16T12:28:03;3.70;;;2.97;;
25615;SDS011;13482;48.234;13.006;2023-05-16T12:30:33;3.38;;;3.05;;
25615;SDS011;13482;48.234;13.006;2023-05-16T12:33:10;3.35;;;3.05;;
25615;SDS011;13482;48.234;13.006;2023-05-16T12:35:41;3.75;;;2.95;;
25615;SDS011;13482;48.234;13.006;2023-05-16T12:38:12;4.75;;;3.30;;
25615;SDS011;13482;48.234;13.006;2023-05-16T12:40:41;3.35;;;2.88;;
25615;SDS011;13482;48.234;13.006;2023-05-16T12:43:27;3.42;;;2.85;;
25615;SDS011;13482;48.234;13.006;2023-05-16T12:45:55;3.10;;;2.75;;
25615;SDS011;13482;48.234;13.006;2023-05-16T12:48:31;4.22;;;2.70;;
25615;SDS011;13482;48.234;13.006;2023-05-16T12:51:12;2.90;;;2.53;;
25615;SDS011;13482;48.234;13.006;2023-05-16T12:53:42;3.65;;;3.03;;
25615;SDS011;13482;48.234;13.006;2023-05-16T12:56:27;3.90;;;2.70;;
25615;SDS011;13482;48.234;13.006;2023-05-16T12:58:54;3.55;;;2.72;;
25615;SDS011;13482;48.234;13.006;2023-05-16T13:01:21;2.60;;;2.40;;
25615;SDS011;13482;48.234;13.006;2023-05-16T13:03:48;3.17;;;2.40;;
25615;SDS011;13482;48.234;13.006;2023-05-16T13:06:16;3.42;;;2.55;;
25615;SDS011;13482;48.234;13.006;2023-05-16T13:08:43;3.08;;;2.75;;
25615;SDS011;13482;48.234;13.006;2023-05-16T13:11:11;3.13;;;2.72;;
25615;SDS011;13482;48.234;13.006;2023-05-16T13:13:38;2.92;;;2.63;;
25615;SDS011;13482;48.234;13.006;2023-05-16T13:16:05;3.20;;;2.90;;
25615;SDS011;13482;48.234;13.006;2023-05-16T13:18:33;4.15;;;2.58;;
25615;SDS011;13482;48.234;13.006;2023-05-16T13:21:02;3.33;;;2.80;;
25615;SDS011;13482;48.234;13.006;2023-05-16T13:23:29;4.00;;;2.60;;
25615;SDS011;13482;48.234;13.006;2023-05-16T13:25:58;2.72;;;2.33;;
25615;SDS011;13482;48.234;13.006;2023-05-16T13:28:25;3.00;;;2.28;;
25615;SDS011;13482;48.234;13.006;2023-05-16T13:30:52;3.17;;;2.65;;
25615;SDS011;13482;48.234;13.006;2023-05-16T13:33:19;2.88;;;2.10;;
25615;SDS011;13482;48.234;13.006;2023-05-16T13:35:47;2.20;;;2.00;;
25615;SDS011;13482;48.234;13.006;2023-05-16T13:38:15;3.00;;;2.38;;
25615;SDS011;13482;48.234;13.006;2023-05-16T13:40:42;2.75;;;2.45;;
25615;SDS011;13482;48.234;13.006;2023-05-16T13:43:10;2.85;;;2.38;;
25615;SDS011;13482;48.234;13.006;2023-05-16T13:45:40;5.32;;;2.20;;
25615;SDS011;13482;48.234;13.006;2023-05-16T13:48:07;3.17;;;2.38;;
25615;SDS011;13482;48.234;13.006;2023-05-16T13:50:34;2.85;;;2.40;;
25615;SDS011;13482;48.234;13.006;2023-05-16T13:53:09;2.35;;;1.90;;
25615;SDS011;13482;48.234;13.006;2023-05-16T13:55:37;2.42;;;2.10;;
25615;SDS011;13482;48.234;13.006;2023-05-16T13:58:04;2.08;;;1.60;;
25615;SDS011;13482;48.234;13.006;2023-05-16T14:00:32;2.10;;;1.88;;
25615;SDS011;13482;48.234;13.006;2023-05-16T14:03:10;2.60;;;1.90;;
25615;SDS011;13482;48.234;13.006;2023-05-16T14:05:38;2.20;;;1.98;;
25615;SDS011;13482;48.234;13.006;2023-05-16T14:08:05;2.10;;;1.80;;
25615;SDS011;13482;48.234;13.006;2023-05-16T14:10:33;2.30;;;1.80;;
25615;SDS011;13482;48.234;13.006;2023-05-16T14:13:01;2.50;;;2.03;;
25615;SDS011;13482;48.234;13.006;2023-05-16T14:15:30;2.55;;;1.98;;
25615;SDS011;13482;48.234;13.006;2023-05-16T14:17:59;2.13;;;1.83;;
25615;SDS011;13482;48.234;13.006;2023-05-16T14:20:26;2.17;;;1.92;;
25615;SDS011;13482;48.234;13.006;2023-05-16T14:22:54;2.47;;;2.03;;
25615;SDS011;13482;48.234;13.006;2023-05-16T14:25:31;2.85;;;2.10;;
25615;SDS011;13482;48.234;13.006;2023-05-16T14:28:15;3.08;;;2.30;;
25615;SDS011;13482;48.234;13.006;2023-05-16T14:30:52;3.38;;;2.00;;
25615;SDS011;13482;48.234;13.006;2023-05-16T14:33:20;3.03;;;2.05;;
25615;SDS011;13482;48.234;13.006;2023-05-16T14:35:48;3.13;;;2.25;;
25615;SDS011;13482;48.234;13.006;2023-05-16T14:38:15;2.58;;;2.08;;
25615;SDS011;13482;48.234;13.006;2023-05-16T14:44:34;2.35;;;1.95;;
25615;SDS011;13482;48.234;13.006;2023-05-16T14:47:02;2.70;;;2.20;;
25615;SDS011;13482;48.234;13.006;2023-05-16T14:49:30;2.25;;;2.03;;
25615;SDS011;13482;48.234;13.006;2023-05-16T14:51:57;2.75;;;2.15;;
25615;SDS011;13482;48.234;13.006;2023-05-16T14:54:24;3.00;;;2.20;;
25615;SDS011;13482;48.234;13.006;2023-05-16T14:56:52;2.92;;;1.90;;
25615;SDS011;13482;48.234;13.006;2023-05-16T14:59:19;3.42;;;2.50;;
25615;SDS011;13482;48.234;13.006;2023-05-16T15:01:46;2.47;;;2.10;;
25615;SDS011;13482;48.234;13.006;2023-05-16T15:04:13;3.05;;;2.13;;
25615;SDS011;13482;48.234;13.006;2023-05-16T15:06:41;5.18;;;2.53;;
25615;SDS011;13482;48.234;13.006;2023-05-16T15:09:08;4.55;;;2.22;;
25615;SDS011;13482;48.234;13.006;2023-05-16T15:11:35;4.15;;;2.47;;
25615;SDS011;13482;48.234;13.006;2023-05-16T15:14:02;2.72;;;2.30;;